Time;durP1;ratioP1;P1;durP2;ratioP2;P2;SDS_P1;SDS_P2;PMS_P1;PMS_P2;Temp;Humidity;BMP_temperature;BMP_pressure;BME280_temperature;BME280_humidity;BME280_pressure;Samples;Min_cycle;Max_cycle;Signal;HPM_P1;HPM_P2
2022/10/30 00:01:06;;;;;;;44.92;26.63;;;;;;;11.83;100.00;100834.13;5051795;28;20048;-75
2022/10/30 00:03:32;;;;;;;55.97;28.80;;;;;;;12.01;100.00;100856.13;5052854;28;20033;-75
2022/10/30 00:05:58;;;;;;;50.45;27.00;;;;;;;11.97;100.00;100859.16;5034987;28;20044;-76
2022/10/30 00:08:28;;;;;;;55.40;28.73;;;;;;;11.97;100.00;100861.22;5050202;28;20032;-77
2022/10/30 00:10:54;;;;;;;49.80;28.67;;;;;;;11.88;100.00;100858.41;5004497;28;20470;-75
2022/10/30 00:13:26;;;;;;;52.15;30.48;;;;;;;11.90;100.00;100861.59;5051672;28;20393;-75
2022/10/30 00:15:53;;;;;;;59.58;29.73;;;;;;;11.77;100.00;100845.44;5052528;28;20033;-74
2022/10/30 00:18:19;;;;;;;52.25;30.48;;;;;;;11.79;100.00;100860.09;5052574;28;20461;-76
2022/10/30 00:20:50;;;;;;;53.53;31.00;;;;;;;11.77;100.00;100867.56;5052354;28;20068;-76
2022/10/30 00:23:15;;;;;;;61.45;30.83;;;;;;;11.76;100.00;100858.19;5052662;28;20036;-75
2022/10/30 00:25:41;;;;;;;52.97;29.20;;;;;;;11.75;100.00;100861.56;5052648;28;20017;-76
2022/10/30 00:28:08;;;;;;;53.58;29.08;;;;;;;11.72;100.00;100862.50;5034480;28;20089;-75
2022/10/30 00:30:35;;;;;;;53.58;30.52;;;;;;;11.68;100.00;100854.09;5053481;28;20370;-75
2022/10/30 00:33:02;;;;;;;50.05;29.30;;;;;;;11.68;100.00;100853.31;5053643;28;20029;-74
2022/10/30 00:35:29;;;;;;;48.88;29.17;;;;;;;11.65;100.00;100851.44;5019347;28;20389;-75
2022/10/30 00:37:56;;;;;;;47.90;27.58;;;;;;;11.53;100.00;100832.41;5035683;28;20473;-74
2022/10/30 00:40:23;;;;;;;51.50;27.33;;;;;;;11.61;100.00;100845.09;5035448;28;20037;-75
2022/10/30 00:42:50;;;;;;;39.35;24.83;;;;;;;11.58;100.00;100852.59;5053535;28;20106;-75
2022/10/30 00:45:16;;;;;;;42.90;26.13;;;;;;;11.57;100.00;100848.13;5035954;28;20485;-74
2022/10/30 00:47:43;;;;;;;45.22;27.42;;;;;;;11.56;100.00;100852.28;5053543;28;20029;-76
2022/10/30 00:50:27;;;;;;;49.90;26.38;;;;;;;11.52;100.00;100845.94;5053080;28;20082;-75
2022/10/30 00:53:21;;;;;;;46.13;25.80;;;;;;;11.54;100.00;100851.19;5035475;28;20029;-74
2022/10/30 00:55:54;;;;;;;46.15;26.85;;;;;;;11.53;100.00;100847.53;5030546;28;20033;-75
2022/10/30 00:58:26;;;;;;;43.75;23.92;;;;;;;11.53;100.00;100841.81;5036797;28;20036;-75
2022/10/30 01:00:52;;;;;;;;;;;;;;;11.52;100.00;100840.22;5006466;28;20469;-75
2022/10/30 01:03:29;;;;;;;38.40;22.15;;;;;;;11.52;100.00;100845.94;5056134;28;19909;-74
2022/10/30 01:05:59;;;;;;;44.17;23.58;;;;;;;11.54;100.00;100840.53;5057453;28;20028;-75
2022/10/30 01:08:26;;;;;;;46.80;24.58;;;;;;;11.55;100.00;100835.59;5023126;28;20044;-74
2022/10/30 01:10:53;;;;;;;40.47;24.33;;;;;;;11.54;100.00;100834.00;5022763;28;20119;-76
2022/10/30 01:13:20;;;;;;;40.58;25.05;;;;;;;11.53;100.00;100820.97;5023032;28;20033;-76
2022/10/30 01:16:18;;;;;;;39.63;23.35;;;;;;;11.46;100.00;100816.41;5006399;28;20119;-75
2022/10/30 01:19:22;;;;;;;42.03;22.95;;;;;;;11.46;100.00;100807.84;5055575;28;20477;-75
2022/10/30 01:22:15;;;;;;;44.38;24.05;;;;;;;11.45;100.00;100814.03;5057006;28;20503;-76
2022/10/30 01:24:50;;;;;;;48.00;24.05;;;;;;;11.41;100.00;100814.22;5010549;28;20544;-75
2022/10/30 01:27:38;;;;;;;39.90;23.80;;;;;;;11.39;100.00;100817.56;5056682;28;20025;-75
2022/10/30 01:30:22;;;;;;;37.88;23.23;;;;;;;11.35;100.00;100825.53;5038911;28;20465;-74
2022/10/30 01:32:58;;;;;;;36.55;22.52;;;;;;;11.31;100.00;100833.53;5038885;28;20032;-74
2022/10/30 01:35:28;;;;;;;44.67;24.10;;;;;;;11.27;100.00;100835.75;5056503;28;20029;-77
2022/10/30 01:38:17;;;;;;;38.72;23.33;;;;;;;11.23;100.00;100831.47;5056204;28;20085;-76
2022/10/30 01:40:44;;;;;;;44.17;23.25;;;;;;;11.17;100.00;100828.47;5055428;28;20392;-76
2022/10/30 01:43:31;;;;;;;42.15;23.40;;;;;;;11.16;100.00;100826.13;5037172;28;20037;-74
2022/10/30 01:46:21;;;;;;;45.75;25.17;;;;;;;11.15;100.00;100833.13;5037134;28;20087;-76
2022/10/30 01:48:53;;;;;;;38.63;22.30;;;;;;;11.14;100.00;100831.53;5055283;28;20111;-75
2022/10/30 01:51:49;;;;;;;42.05;22.70;;;;;;;11.16;100.00;100829.00;5055233;28;20020;-75
2022/10/30 01:54:40;;;;;;;37.03;22.27;;;;;;;11.15;100.00;100835.97;5036994;28;20052;-75
2022/10/30 01:57:26;;;;;;;39.55;23.13;;;;;;;11.12;100.00;100837.75;5029465;28;20045;-76
2022/10/30 02:00:12;;;;;;;38.50;22.00;;;;;;;11.12;100.00;100842.69;5054897;28;20377;-75
2022/10/30 02:02:59;;;;;;;41.60;21.65;;;;;;;11.11;100.00;100832.47;5036461;28;20064;-76
2022/10/30 02:05:41;;;;;;;40.10;22.45;;;;;;;11.08;100.00;100836.28;5036240;28;20013;-74
2022/10/30 02:08:16;;;;;;;38.03;19.95;;;;;;;11.07;100.00;100832.66;5036804;28;20013;-75
2022/10/30 02:10:45;;;;;;;35.58;21.58;;;;;;;11.06;100.00;100831.06;5004563;28;20028;-75
2022/10/30 02:13:12;;;;;;;37.58;21.73;;;;;;;11.06;100.00;100833.94;5035274;28;20095;-74
2022/10/30 02:15:46;;;;;;;36.92;21.30;;;;;;;10.86;100.00;100797.31;5038367;28;20110;-75
2022/10/30 02:18:12;;;;;;;33.58;20.08;;;;;;;10.99;100.00;100817.91;5038342;28;20056;-75
2022/10/30 02:20:38;;;;;;;34.80;20.92;;;;;;;11.02;100.00;100823.94;5055905;28;20063;-75
2022/10/30 02:23:05;;;;;;;32.53;18.30;;;;;;;10.94;100.00;100826.34;5055061;28;20044;-75
2022/10/30 02:25:32;;;;;;;36.00;19.80;;;;;;;10.94;100.00;100835.72;5037766;28;20033;-75
2022/10/30 02:27:58;;;;;;;42.30;21.05;;;;;;;10.91;100.00;100836.69;5055070;28;20041;-75
2022/10/30 02:30:26;;;;;;;31.90;20.35;;;;;;;10.91;100.00;100847.34;5055665;28;20482;-75
2022/10/30 02:32:53;;;;;;;34.17;19.42;;;;;;;10.88;100.00;100845.41;5055884;28;20059;-75
2022/10/30 02:35:19;;;;;;;34.58;18.85;;;;;;;10.87;100.00;100846.72;5055693;28;20033;-74
2022/10/30 02:37:47;;;;;;;30.20;18.23;;;;;;;10.85;100.00;100846.41;5055582;28;20032;-76
2022/10/30 02:40:14;;;;;;;30.10;18.90;;;;;;;10.84;100.00;100847.66;5038093;28;20032;-77
2022/10/30 02:42:42;;;;;;;32.08;18.30;;;;;;;10.83;100.00;100838.28;5055714;28;20386;-75
2022/10/30 02:45:08;;;;;;;31.83;17.25;;;;;;;10.80;100.00;100829.91;5037795;28;20028;-76
2022/10/30 02:47:35;;;;;;;24.75;16.15;;;;;;;10.80;100.00;100824.97;5055914;28;20100;-76
2022/10/30 02:50:01;;;;;;;28.95;16.25;;;;;;;10.80;100.00;100827.03;5054601;28;20040;-74
2022/10/30 02:52:28;;;;;;;28.23;17.13;;;;;;;10.67;100.00;100801.53;5037391;28;20112;-75
2022/10/30 02:55:01;;;;;;;31.15;15.63;;;;;;;10.89;100.00;100827.78;5055182;28;20029;-74
2022/10/30 02:57:28;;;;;;;25.52;14.77;;;;;;;10.88;100.00;100809.06;5036999;28;20057;-75
2022/10/30 02:59:56;;;;;;;25.25;14.98;;;;;;;10.92;100.00;100824.00;5037510;28;20078;-74
2022/10/30 03:02:22;;;;;;;33.95;15.68;;;;;;;10.91;100.00;100810.16;5037081;28;20024;-74
2022/10/30 03:04:50;;;;;;;36.33;17.15;;;;;;;10.94;100.00;100826.34;5037234;28;20025;-74
2022/10/30 03:07:16;;;;;;;25.80;15.20;;;;;;;10.94;100.00;100824.28;5054871;28;20021;-76
2022/10/30 03:09:44;;;;;;;25.60;14.93;;;;;;;10.93;100.00;100819.81;5036927;28;20041;-74
2022/10/30 03:12:10;;;;;;;26.20;15.27;;;;;;;10.93;100.00;100813.31;5037016;28;20035;-76
2022/10/30 03:14:36;;;;;;;23.55;15.23;;;;;;;10.92;100.00;100815.41;5054053;28;20040;-76
2022/10/30 03:17:03;;;;;;;23.63;15.00;;;;;;;10.94;100.00;100823.47;5036600;28;20118;-76
2022/10/30 03:19:28;;;;;;;27.73;15.48;;;;;;;10.91;100.00;100818.75;5036914;28;20025;-76
2022/10/30 03:21:53;;;;;;;21.95;14.65;;;;;;;10.93;100.00;100828.41;5054658;28;20419;-76
2022/10/30 03:24:21;;;;;;;28.58;15.32;;;;;;;10.92;100.00;100817.47;5054961;28;20029;-76
2022/10/30 03:26:47;;;;;;;34.40;16.05;;;;;;;10.90;100.00;100820.81;5054986;28;20020;-76
2022/10/30 03:29:13;;;;;;;27.77;14.38;;;;;;;10.90;100.00;100820.00;5053909;28;20413;-76
2022/10/30 03:31:39;;;;;;;21.77;14.25;;;;;;;10.86;100.00;100820.19;5054364;28;20541;-76
2022/10/30 03:34:06;;;;;;;32.63;16.30;;;;;;;10.90;100.00;100823.66;5054762;28;20025;-76
2022/10/30 03:36:31;;;;;;;27.80;15.73;;;;;;;10.90;100.00;100822.88;5054311;28;20024;-75
2022/10/30 03:38:57;;;;;;;27.20;15.52;;;;;;;10.88;100.00;100822.56;5053961;28;20048;-75
2022/10/30 03:41:22;;;;;;;25.55;14.95;;;;;;;10.87;100.00;100823.84;5054311;28;20043;-76
2022/10/30 03:43:48;;;;;;;24.02;14.63;;;;;;;10.86;100.00;100817.34;5054710;28;20029;-75
2022/10/30 03:46:15;;;;;;;22.73;14.32;;;;;;;10.87;100.00;100818.94;5019962;28;20025;-75
2022/10/30 03:48:40;;;;;;;28.42;14.40;;;;;;;10.68;100.00;100794.50;5054648;28;20025;-76
2022/10/30 03:51:06;;;;;;;20.75;14.20;;;;;;;10.84;100.00;100817.00;5036493;28;20055;-76
2022/10/30 03:53:33;;;;;;;25.38;14.70;;;;;;;10.87;100.00;100827.50;5036606;28;20513;-75
2022/10/30 03:56:02;;;;;;;24.95;13.82;;;;;;;10.85;100.00;100827.19;5035080;28;20060;-75
2022/10/30 03:58:29;;;;;;;20.83;13.95;;;;;;;10.83;100.00;100820.34;5054309;28;20060;-74
2022/10/30 04:01:05;;;;;;;21.13;14.73;;;;;;;10.80;100.00;100819.25;5036098;28;20025;-76
2022/10/30 04:03:50;;;;;;;22.83;14.57;;;;;;;10.76;100.00;100810.06;5054083;28;20024;-75
2022/10/30 04:06:16;;;;;;;28.75;15.82;;;;;;;10.73;100.00;100822.44;5052974;28;20390;-75
2022/10/30 04:08:42;;;;;;;24.70;15.43;;;;;;;10.68;100.00;100811.66;5035376;28;20045;-75
2022/10/30 04:11:12;;;;;;;24.45;15.30;;;;;;;10.58;100.00;100804.38;5052813;28;20032;-75
2022/10/30 04:13:40;;;;;;;26.27;15.32;;;;;;;10.50;100.00;100797.44;5054046;28;20163;-75
2022/10/30 04:16:20;;;;;;;25.60;14.65;;;;;;;10.57;100.00;100810.59;5036198;28;20021;-75
2022/10/30 04:18:45;;;;;;;25.80;14.45;;;;;;;10.51;100.00;100808.41;5052660;28;20033;-75
2022/10/30 04:21:11;;;;;;;23.23;14.02;;;;;;;10.47;100.00;100804.91;5034259;28;20017;-74
2022/10/30 04:23:36;;;;;;;28.65;16.25;;;;;;;10.46;100.00;100791.09;5034682;28;20470;-75
2022/10/30 04:26:01;;;;;;;28.00;14.35;;;;;;;10.39;100.00;100789.38;5052421;28;20028;-74
2022/10/30 04:28:27;;;;;;;27.83;14.75;;;;;;;10.26;100.00;100773.69;5052292;28;20055;-75
2022/10/30 04:30:52;;;;;;;23.75;14.05;;;;;;;10.37;100.00;100794.78;5018334;28;20025;-75
2022/10/30 04:33:17;;;;;;;23.70;14.48;;;;;;;10.36;100.00;100796.06;5034918;28;20075;-75
2022/10/30 04:35:43;;;;;;;25.75;13.75;;;;;;;10.32;100.00;100791.78;5053337;28;20381;-75
2022/10/30 04:38:13;;;;;;;21.05;12.27;;;;;;;10.30;100.00;100797.16;5035725;28;20025;-76
2022/10/30 04:40:46;;;;;;;19.52;12.63;;;;;;;10.28;100.00;100791.97;5035894;28;20028;-75
2022/10/30 04:43:20;;;;;;;18.35;11.95;;;;;;;10.27;100.00;100789.56;5053326;28;20059;-75
2022/10/30 04:45:47;;;;;;;22.02;12.38;;;;;;;10.24;100.00;100790.50;5035521;28;20021;-75
2022/10/30 04:48:16;;;;;;;22.67;13.70;;;;;;;10.22;100.00;100793.06;5036097;28;20100;-74
2022/10/30 04:50:43;;;;;;;19.63;12.82;;;;;;;10.19;100.00;100794.81;5019483;28;20044;-75
2022/10/30 04:53:21;;;;;;;24.75;13.85;;;;;;;10.17;100.00;100790.84;5035753;28;20036;-74
2022/10/30 04:55:52;;;;;;;28.70;14.70;;;;;;;10.17;100.00;100790.84;5053334;28;20055;-76
2022/10/30 04:58:20;;;;;;;20.40;14.63;;;;;;;10.10;100.00;100783.41;5036072;28;20045;-76
2022/10/30 05:00:46;;;;;;;28.48;15.93;;;;;;;10.15;100.00;100788.47;5053469;28;20120;-76
2022/10/30 05:03:33;;;;;;;22.92;14.70;;;;;;;10.11;100.00;100785.00;5052427;28;20397;-76
2022/10/30 05:06:23;;;;;;;24.40;14.15;;;;;;;10.06;100.00;100795.00;5035364;28;20031;-75
2022/10/30 05:08:49;;;;;;;30.33;15.57;;;;;;;10.01;100.00;100792.78;5042805;28;20040;-75
2022/10/30 05:11:17;;;;;;;30.45;15.10;;;;;;;10.00;100.00;100781.81;5015456;28;20485;-75
2022/10/30 05:13:43;;;;;;;26.70;15.13;;;;;;;9.93;100.00;100777.25;5033457;28;20040;-75
2022/10/30 05:16:09;;;;;;;28.48;15.18;;;;;;;9.99;100.00;100788.78;5015406;28;20033;-75
2022/10/30 05:18:35;;;;;;;25.17;15.05;;;;;;;9.98;100.00;100790.88;5015380;28;20485;-75
2022/10/30 05:21:01;;;;;;;24.40;14.57;;;;;;;9.99;100.00;100797.34;5015695;28;20048;-75
2022/10/30 05:23:26;;;;;;;28.08;14.77;;;;;;;10.00;100.00;100787.53;5015368;28;20025;-74
2022/10/30 05:25:52;;;;;;;27.20;14.82;;;;;;;10.01;100.00;100781.34;5015519;28;20026;-75
2022/10/30 05:28:18;;;;;;;25.40;15.52;;;;;;;10.00;100.00;100791.19;5032144;28;20445;-75
2022/10/30 05:30:46;;;;;;;28.88;14.93;;;;;;;10.02;100.00;100790.72;5033096;28;20080;-74
2022/10/30 05:33:15;;;;;;;23.35;14.98;;;;;;;10.01;100.00;100791.97;4998964;28;20028;-74
2022/10/30 05:35:40;;;;;;;24.55;14.02;;;;;;;9.99;100.00;100797.34;5033353;28;20040;-74
2022/10/30 05:38:06;;;;;;;25.33;14.57;;;;;;;9.96;100.00;100796.25;5015529;28;20113;-77
2022/10/30 05:40:33;;;;;;;21.58;14.68;;;;;;;9.94;100.00;100804.50;4999044;28;20025;-75
2022/10/30 05:42:59;;;;;;;28.92;15.10;;;;;;;9.93;100.00;100802.16;5015556;28;20040;-74
2022/10/30 05:45:26;;;;;;;23.95;15.48;;;;;;;9.91;100.00;100801.81;5016539;28;20175;-75
2022/10/30 05:47:57;;;;;;;27.42;14.63;;;;;;;9.95;100.00;100805.31;5036912;28;20032;-75
2022/10/30 05:50:24;;;;;;;31.83;15.88;;;;;;;9.96;100.00;100807.69;5018804;28;20367;-75
2022/10/30 05:52:53;;;;;;;29.20;17.13;;;;;;;9.92;100.00;100794.84;5019066;28;20037;-75
2022/10/30 05:55:20;;;;;;;24.35;15.60;;;;;;;10.01;100.00;100801.34;5036608;28;20025;-73
2022/10/30 05:57:47;;;;;;;30.05;16.27;;;;;;;10.01;100.00;100807.06;5036193;28;20041;-76
2022/10/30 06:00:13;;;;;;;26.60;15.88;;;;;;;10.07;100.00;100805.16;5018400;28;20395;-76
2022/10/30 06:02:39;;;;;;;28.23;15.88;;;;;;;10.12;100.00;100806.56;5036130;28;20498;-79
2022/10/30 06:05:04;;;;;;;26.95;15.73;;;;;;;10.15;100.00;100799.88;5036379;28;20033;-79
2022/10/30 06:07:31;;;;;;;20.52;14.32;;;;;;;10.18;100.00;100806.72;5036624;28;20026;-81
2022/10/30 06:09:56;;;;;;;31.00;15.68;;;;;;;10.21;100.00;100812.25;5036123;28;20025;-79
2022/10/30 06:12:23;;;;;;;24.00;15.13;;;;;;;10.24;100.00;100811.28;5017930;28;20045;-75
2022/10/30 06:14:48;;;;;;;27.52;16.23;;;;;;;10.25;100.00;100806.38;5034707;28;20041;-77
2022/10/30 06:17:13;;;;;;;24.70;16.33;;;;;;;10.29;100.00;100807.00;5036386;28;20087;-79
2022/10/30 06:19:41;;;;;;;24.98;15.32;;;;;;;10.29;100.00;100809.84;5035908;28;20455;-76
2022/10/30 06:22:06;;;;;;;33.38;16.88;;;;;;;10.37;100.00;100814.78;5018311;28;20032;-77
2022/10/30 06:24:31;;;;;;;26.83;16.27;;;;;;;10.42;100.00;100813.34;5034744;28;20037;-76
2022/10/30 06:26:58;;;;;;;29.42;16.48;;;;;;;10.47;100.00;100813.50;5035736;28;20026;-78
2022/10/30 06:29:23;;;;;;;26.83;17.15;;;;;;;10.55;100.00;100819.66;5035625;28;20113;-76
2022/10/30 06:31:49;;;;;;;27.58;16.45;;;;;;;10.62;100.00;100815.66;5035700;28;20060;-77
2022/10/30 06:34:16;;;;;;;28.30;16.73;;;;;;;10.65;100.00;100821.22;5018391;28;20474;-77
2022/10/30 06:36:42;;;;;;;29.52;16.83;;;;;;;10.69;100.00;100816.13;5001385;28;20124;-79
2022/10/30 06:39:08;;;;;;;23.88;16.48;;;;;;;10.78;100.00;100821.00;5001489;28;20030;-78
2022/10/30 06:41:35;;;;;;;30.42;16.83;;;;;;;10.86;100.00;100823.06;5035753;28;20025;-77
2022/10/30 06:44:00;;;;;;;28.95;17.75;;;;;;;10.96;100.00;100813.16;5017696;28;20113;-77
2022/10/30 06:46:26;;;;;;;30.95;16.75;;;;;;;11.04;100.00;100822.16;5017765;28;20108;-76
2022/10/30 06:48:52;;;;;;;25.15;15.75;;;;;;;11.13;100.00;100827.06;5018027;28;20434;-75
2022/10/30 06:51:18;;;;;;;28.63;17.20;;;;;;;11.20;100.00;100832.47;5017850;28;20474;-75
2022/10/30 06:53:45;;;;;;;29.02;16.10;;;;;;;11.29;100.00;100830.34;5035488;28;20067;-74
2022/10/30 06:56:11;;;;;;;28.23;16.73;;;;;;;11.41;100.00;100842.84;5000350;28;20030;-75
2022/10/30 06:58:38;;;;;;;26.58;15.05;;;;;;;11.50;100.00;100839.91;5017410;28;20466;-77
2022/10/30 07:01:07;;;;;;;27.77;15.15;;;;;;;11.65;100.00;100837.91;5001371;28;20021;-75
2022/10/30 07:03:33;;;;;;;26.98;15.70;;;;;;;11.75;100.00;100845.16;5017310;28;20075;-75
2022/10/30 07:05:59;;;;;;;23.83;14.63;;;;;;;11.88;100.00;100838.38;5035373;28;20033;-75
2022/10/30 07:08:25;;;;;;;29.92;16.33;;;;;;;12.00;100.00;100848.78;5034857;28;20566;-75
2022/10/30 07:10:50;;;;;;;25.88;14.40;;;;;;;12.15;100.00;100849.63;5034899;28;20074;-75
2022/10/30 07:13:16;;;;;;;28.45;15.77;;;;;;;12.22;100.00;100841.44;5034909;28;20026;-74
2022/10/30 07:15:43;;;;;;;23.00;15.05;;;;;;;12.30;100.00;100838.97;5034882;28;20470;-77
2022/10/30 07:18:09;;;;;;;25.30;14.68;;;;;;;12.43;100.00;100850.97;5035132;28;20052;-76
2022/10/30 07:20:36;;;;;;;22.88;15.43;;;;;;;12.56;100.00;100856.41;5017137;28;20033;-77
2022/10/30 07:23:02;;;;;;;22.10;13.63;;;;;;;12.71;100.00;100851.47;5034854;28;20421;-75
2022/10/30 07:25:28;;;;;;;23.17;13.23;;;;;;;12.90;100.00;100843.47;5035030;28;20080;-75
2022/10/30 07:27:54;;;;;;;18.67;12.20;;;;;;;13.19;100.00;100834.81;5016991;28;20045;-76
2022/10/30 07:30:35;;;;;;;24.70;13.18;;;;;;;13.80;100.00;100832.03;5034604;28;20458;-75
2022/10/30 07:33:10;;;;;;;22.17;14.45;;;;;;;14.39;100.00;100838.22;5034702;28;20029;-75
2022/10/30 07:35:37;;;;;;;25.38;14.13;;;;;;;14.91;100.00;100844.78;5034756;28;20026;-76
2022/10/30 07:38:11;;;;;;;19.45;14.98;;;;;;;15.38;100.00;100845.38;5015774;28;20045;-76
2022/10/30 07:40:38;;;;;;;23.17;14.60;;;;;;;15.72;100.00;100841.44;4984061;28;20029;-76
2022/10/30 07:43:05;;;;;;;23.17;14.02;;;;;;;16.08;100.00;100837.66;5016570;28;20036;-74
2022/10/30 07:45:32;;;;;;;21.30;13.95;;;;;;;16.26;100.00;100818.31;5016756;28;20029;-83
2022/10/30 07:47:58;;;;;;;23.63;13.88;;;;;;;16.74;100.00;100836.28;5034592;28;20033;-84
2022/10/30 07:50:25;;;;;;;21.42;13.02;;;;;;;17.07;100.00;100843.38;5034522;28;20033;-81
2022/10/30 07:52:51;;;;;;;24.10;12.82;;;;;;;17.24;100.00;100832.63;5016788;28;20030;-81
2022/10/30 07:55:19;;;;;;;22.63;11.25;;;;;;;17.32;100.00;100811.31;5033461;28;20095;-80
2022/10/30 07:57:45;;;;;;;18.33;11.77;;;;;;;17.58;100.00;100837.03;5034066;28;20049;-81
2022/10/30 08:00:13;;;;;;;16.15;10.13;;;;;;;17.61;100.00;100826.50;5034026;28;20359;-82
2022/10/30 08:02:39;;;;;;;15.55;11.13;;;;;;;17.74;100.00;100832.50;5016599;28;20470;-76
2022/10/30 08:05:07;;;;;;;18.02;11.60;;;;;;;17.74;100.00;100823.84;4983618;28;20122;-76
2022/10/30 08:07:34;;;;;;;18.15;10.68;;;;;;;17.80;100.00;100831.19;5015857;28;20096;-77
2022/10/30 08:10:01;;;;;;;15.00;10.07;;;;;;;18.03;100.00;100839.78;5015914;28;20042;-74
2022/10/30 08:12:28;;;;;;;15.15;9.95;;;;;;;18.28;100.00;100844.38;5034033;28;20053;-74
2022/10/30 08:14:53;;;;;;;15.30;10.02;;;;;;;18.47;100.00;100833.00;5032840;28;20167;-78
2022/10/30 08:17:19;;;;;;;12.95;9.27;;;;;;;18.62;100.00;100830.53;5031304;28;20026;-77
2022/10/30 08:19:45;;;;;;;14.77;8.88;;;;;;;18.72;100.00;100833.91;5013949;28;20025;-76
2022/10/30 08:22:11;;;;;;;13.82;9.07;;;;;;;18.85;100.00;100837.72;5031514;28;20048;-77
2022/10/30 08:24:36;;;;;;;15.85;9.80;;;;;;;18.98;100.00;100837.09;5031801;28;20021;-78
2022/10/30 08:27:02;;;;;;;14.45;9.40;;;;;;;19.05;100.00;100827.81;4997538;28;20437;-77
2022/10/30 08:29:28;;;;;;;13.07;9.15;;;;;;;19.06;100.00;100826.50;5031542;28;20052;-76
2022/10/30 08:31:53;;;;;;;21.00;9.38;;;;;;;19.03;100.00;100828.34;5031440;28;20470;-77
2022/10/30 08:34:19;;;;;;;14.45;8.52;;;;;;;18.93;100.00;100815.53;5031246;28;20446;-77
2022/10/30 08:36:47;;;;;;;19.42;9.45;;;;;;;18.97;100.00;100824.72;5031221;28;20112;-76
2022/10/30 08:39:14;;;;;;;14.02;8.98;;;;;;;18.96;100.00;100817.38;5031262;28;20053;-77
2022/10/30 08:41:40;;;;;;;13.43;9.70;;;;;;;18.97;100.00;100818.13;5013718;28;20033;-77
2022/10/30 08:44:05;;;;;;;16.88;8.90;;;;;;;18.88;100.00;100804.78;5013978;28;20386;-76
2022/10/30 08:46:30;;;;;;;16.45;9.38;;;;;;;18.79;100.00;100804.34;5033472;28;20026;-75
2022/10/30 08:48:56;;;;;;;19.05;10.13;;;;;;;18.68;100.00;100806.00;5015617;28;20116;-76
2022/10/30 08:51:22;;;;;;;17.38;11.65;;;;;;;18.54;100.00;100803.47;5033515;28;20428;-76
2022/10/30 08:53:48;;;;;;;14.68;9.18;;;;;;;18.42;100.00;100802.78;5033886;28;20034;-74
2022/10/30 08:56:14;;;;;;;15.05;9.25;;;;;;;18.31;100.00;100813.63;5015740;28;20108;-77
2022/10/30 08:58:39;;;;;;;15.90;10.80;;;;;;;18.20;100.00;100805.75;5033524;28;20451;-76
2022/10/30 09:01:05;;;;;;;19.77;9.68;;;;;;;18.12;100.00;100807.66;5015363;28;20029;-76
2022/10/30 09:03:30;;;;;;;18.13;9.98;;;;;;;18.04;100.00;100800.84;5015633;28;20021;-74
2022/10/30 09:05:58;;;;;;;14.15;9.43;;;;;;;17.84;100.00;100781.75;4999213;28;20020;-76
2022/10/30 09:08:24;;;;;;;16.80;8.80;;;;;;;17.94;100.00;100803.25;5016028;28;20094;-76
2022/10/30 09:10:54;;;;;;;16.65;10.15;;;;;;;17.90;100.00;100801.97;4999132;28;20470;-75
2022/10/30 09:13:19;;;;;;;19.70;10.48;;;;;;;17.81;100.00;100789.38;5033516;28;20028;-76
2022/10/30 09:15:45;;;;;;;13.48;8.65;;;;;;;17.82;100.00;100795.97;5015372;28;20026;-76
2022/10/30 09:18:10;;;;;;;22.55;9.93;;;;;;;17.74;100.00;100798.59;5033498;28;20029;-77
2022/10/30 09:20:36;;;;;;;14.73;8.77;;;;;;;17.66;100.00;100803.38;5036481;28;20017;-75
2022/10/30 09:23:01;;;;;;;18.35;8.65;;;;;;;17.56;100.00;100801.31;5037121;28;20049;-76
2022/10/30 09:25:27;;;;;;;14.95;8.65;;;;;;;17.56;100.00;100813.66;5019388;28;20098;-75
2022/10/30 09:27:52;;;;;;;12.65;8.20;;;;;;;17.56;100.00;100804.19;5036904;28;20420;-76
2022/10/30 09:30:18;;;;;;;13.18;8.93;;;;;;;17.58;100.00;100810.25;5036627;28;20022;-76
2022/10/30 09:32:43;;;;;;;15.52;8.90;;;;;;;17.61;100.00;100803.38;5002546;28;20029;-76
2022/10/30 09:35:09;;;;;;;15.43;9.63;;;;;;;17.64;100.00;100811.78;5036655;28;20053;-76
2022/10/30 09:37:37;;;;;;;13.35;8.27;;;;;;;17.68;100.00;100803.66;5036673;28;20022;-76
2022/10/30 09:40:04;;;;;;;12.50;8.25;;;;;;;17.73;100.00;100807.84;5002592;28;20033;-75
2022/10/30 09:42:41;;;;;;;14.38;7.53;;;;;;;17.80;100.00;100804.38;5036499;28;20101;-77
2022/10/30 09:45:45;;;;;;;13.82;7.90;;;;;;;17.75;100.00;100779.94;5036480;28;20056;-76
2022/10/30 09:48:23;;;;;;;16.67;8.90;;;;;;;17.94;100.00;100796.69;5036589;28;20021;-75
2022/10/30 09:51:20;;;;;;;15.32;8.10;;;;;;;18.03;100.00;100796.41;5036345;28;20083;-76
2022/10/30 09:54:04;;;;;;;16.45;8.00;;;;;;;18.09;100.00;100782.69;5002159;28;20063;-76
2022/10/30 09:56:43;;;;;;;13.50;8.32;;;;;;;18.05;100.00;100774.28;5018387;28;20364;-76
2022/10/30 09:59:11;;;;;;;12.95;8.77;;;;;;;18.14;100.00;100778.97;5002903;28;20052;-75
2022/10/30 10:01:52;;;;;;;11.95;7.85;;;;;;;18.19;100.00;100766.56;5018406;28;20032;-76
2022/10/30 10:04:26;;;;;;;14.85;8.90;;;;;;;18.21;100.00;100761.84;5036479;28;20108;-75
2022/10/30 10:07:21;;;;;;;11.35;7.75;;;;;;;18.26;100.00;100766.81;5035920;28;20485;-76
2022/10/30 10:09:48;;;;;;;19.20;7.18;;;;;;;18.31;100.00;100765.22;5007885;28;20057;-75
2022/10/30 10:12:36;;;;;;;12.68;6.72;;;;;;;18.39;100.00;100768.31;5018312;28;20040;-75
2022/10/30 10:15:10;;;;;;;13.27;7.03;;;;;;;18.43;100.00;100765.91;5018360;28;20529;-75
2022/10/30 10:17:38;;;;;;;13.57;7.00;;;;;;;18.50;100.00;100763.25;5035812;28;20032;-76
2022/10/30 10:20:05;;;;;;;17.02;7.97;;;;;;;18.57;100.00;100761.88;5018334;28;20116;-76
2022/10/30 10:22:42;;;;;;;17.83;8.15;;;;;;;18.62;100.00;100752.38;5035764;28;20025;-77
2022/10/30 10:25:12;;;;;;;13.20;6.85;;;;;;;18.69;100.00;100758.34;5018576;28;20033;-76
2022/10/30 10:27:44;;;;;;;11.73;7.00;;;;;;;18.74;100.00;100748.03;5018023;28;20370;-77
2022/10/30 10:30:13;;;;;;;15.65;7.00;;;;;;;18.78;100.00;100744.84;5035777;28;20112;-75
2022/10/30 10:33:03;;;;;;;16.55;7.50;;;;;;;18.82;100.00;100751.91;5035271;28;20035;-76
2022/10/30 10:35:47;;;;;;;10.80;7.28;;;;;;;18.85;100.00;100747.16;5018409;28;20017;-76
2022/10/30 10:38:28;;;;;;;11.07;7.05;;;;;;;18.89;100.00;100747.66;5018446;28;20359;-76
2022/10/30 10:41:00;;;;;;;17.15;7.38;;;;;;;18.93;100.00;100748.13;5035592;28;20041;-76
2022/10/30 10:43:44;;;;;;;13.35;6.90;;;;;;;19.00;100.00;100748.34;5035440;28;20061;-75
2022/10/30 10:46:28;;;;;;;14.73;7.95;;;;;;;19.06;100.00;100751.19;5017656;28;20045;-77
2022/10/30 10:49:02;;;;;;;11.70;7.28;;;;;;;19.14;100.00;100746.38;5035575;28;20466;-76
2022/10/30 10:51:34;;;;;;;13.25;6.97;;;;;;;19.24;100.00;100759.19;5035397;28;20059;-76
2022/10/30 10:54:04;;;;;;;13.02;6.53;;;;;;;19.35;100.00;100758.28;5035096;28;20108;-75
2022/10/30 10:56:35;;;;;;;13.65;7.25;;;;;;;19.41;100.00;100747.41;5017511;28;20053;-77
2022/10/30 10:59:04;;;;;;;15.80;7.00;;;;;;;19.44;100.00;100735.50;5035553;28;20033;-76
2022/10/30 11:01:39;;;;;;;12.27;8.05;;;;;;;19.47;100.00;100727.81;5001035;28;20361;-77
2022/10/30 11:04:15;;;;;;;14.25;6.55;;;;;;;19.52;100.00;100726.97;5017519;28;20037;-78
2022/10/30 11:06:43;;;;;;;12.18;6.93;;;;;;;19.57;100.00;100722.44;5034943;28;20021;-75
2022/10/30 11:09:13;;;;;;;11.07;6.30;;;;;;;19.67;100.00;100732.31;5035069;28;20029;-75
2022/10/30 11:11:38;;;;;;;13.63;6.60;;;;;;;19.80;100.00;100727.41;5000866;28;20385;-75
2022/10/30 11:14:20;;;;;;;12.25;6.57;;;;;;;19.86;100.00;100718.63;5034895;28;20032;-77
2022/10/30 11:17:04;;;;;;;;;;;;;;;20.00;100.00;100731.13;5017296;28;20378;-77